Time;durP1;ratioP1;P1;durP2;ratioP2;P2;SDS_P1;SDS_P2;PMS_P1;PMS_P2;Temp;Humidity;BMP_temperature;BMP_pressure;BME280_temperature;BME280_humidity;BME280_pressure;Samples;Min_cycle;Max_cycle;Signal;HPM_P1;HPM_P2
2022/11/06 00:00:42;;;;;;;;;7.75;7.00;;;;;13.18;64.84;101100.22;2113591;27;46341;-70
2022/11/06 00:01:42;;;;;;;;;1.00;1.00;;;;;13.16;64.77;101102.91;2118434;27;46073;-71
2022/11/06 00:02:43;;;;;;;;;9.75;8.25;;;;;13.16;64.81;101094.91;2117903;27;46863;-71
2022/11/06 00:03:44;;;;;;;;;10.40;10.40;;;;;13.17;64.85;101093.13;2117039;27;45925;-71
2022/11/06 00:04:44;;;;;;;;;9.20;8.00;;;;;13.16;64.96;101091.38;2121310;27;45561;-70
2022/11/06 00:07:04;;;;;;;;;8.20;8.20;;;;;13.18;65.00;101084.22;2112477;27;46857;-70
2022/11/06 00:08:04;;;;;;;;;7.00;7.00;;;;;13.19;65.03;101083.31;2116774;27;46566;-69
2022/11/06 00:09:07;;;;;;;;;9.75;9.75;;;;;13.18;64.72;101077.13;2116264;27;46142;-71
2022/11/06 00:10:08;;;;;;;;;9.60;9.60;;;;;13.19;64.77;101078.00;2121655;27;46605;-72
2022/11/06 00:11:14;;;;;;;;;9.50;7.50;;;;;13.18;64.67;101077.13;2114298;27;45736;-70
2022/11/06 00:12:14;;;;;;;;;10.00;9.80;;;;;13.19;64.72;101072.66;2113458;27;46340;-71
2022/11/06 00:13:14;;;;;;;;;7.00;7.00;;;;;13.19;64.73;101075.34;2113164;27;46046;-71
2022/11/06 00:14:16;;;;;;;;;7.50;7.00;;;;;13.17;64.72;101070.00;2114967;27;46808;-71
2022/11/06 00:15:16;;;;;;;;;8.00;8.00;;;;;13.15;64.66;101069.19;2121644;27;48440;-70
2022/11/06 00:16:17;;;;;;;;;9.00;7.00;;;;;13.15;64.75;101074.50;2118679;27;46024;-70
2022/11/06 00:17:18;;;;;;;;;9.60;8.00;;;;;13.16;64.64;101070.06;2119395;27;45615;-69
2022/11/06 00:18:18;;;;;;;;;8.25;7.00;;;;;13.16;64.78;101065.59;2119383;27;46106;-71
2022/11/06 00:19:18;;;;;;;;;8.00;7.50;;;;;13.16;64.94;101070.06;2121928;27;45561;-71
2022/11/06 00:20:19;;;;;;;;;8.25;8.00;;;;;13.15;65.22;101068.31;2122136;27;46518;-70
2022/11/06 00:21:22;;;;;;;;;11.00;9.00;;;;;13.15;64.61;101076.31;2112518;27;45882;-71
2022/11/06 00:22:23;;;;;;;;;9.40;7.60;;;;;13.16;64.92;101080.72;2109969;27;46005;-71
2022/11/06 00:23:23;;;;;;;;;7.50;6.00;;;;;13.16;64.82;101083.38;2118260;27;46538;-71
2022/11/06 00:24:23;;;;;;;;;7.00;6.50;;;;;13.16;64.78;101092.25;2121014;27;45765;-71
2022/11/06 00:25:23;;;;;;;;;7.25;6.50;;;;;13.16;64.85;101086.94;2121024;27;45408;-69
2022/11/06 00:26:26;;;;;;;;;11.50;11.00;;;;;13.19;64.61;101088.66;2114723;27;45819;-71
2022/11/06 00:27:27;;;;;;;;;5.60;5.60;;;;;13.19;64.71;101094.88;2117229;27;46884;-70
2022/11/06 00:28:27;;;;;;;;;7.00;6.00;;;;;13.20;64.62;101093.06;2113187;27;45910;-69
2022/11/06 00:29:27;;;;;;;;;9.75;9.25;;;;;13.20;64.53;101091.28;2113171;27;45846;-71
2022/11/06 00:30:27;;;;;;;;;6.00;6.00;;;;;13.19;64.56;101076.22;2113163;27;46710;-70
2022/11/06 00:31:34;;;;;;;;;8.25;7.00;;;;;13.20;64.45;101077.09;2113012;27;45846;-71
2022/11/06 00:32:34;;;;;;;;;9.80;8.80;;;;;13.20;64.61;101077.09;2104691;27;46096;-71
2022/11/06 00:33:35;;;;;;;;;6.67;6.67;;;;;13.21;64.83;101074.41;2108995;27;46641;-71
2022/11/06 00:34:36;;;;;;;;;7.60;7.60;;;;;13.22;64.67;101080.59;2116542;27;46584;-70
2022/11/06 00:35:38;;;;;;;;;6.00;6.00;;;;;13.24;64.54;101078.78;2118748;27;46370;-70
2022/11/06 00:36:38;;;;;;;;;7.00;7.00;;;;;13.24;64.62;101090.31;2116498;27;46029;-71
2022/11/06 00:37:38;;;;;;;;;7.50;7.25;;;;;13.25;64.50;101091.19;2120674;27;46305;-71
2022/11/06 00:38:39;;;;;;;;;8.00;8.00;;;;;13.24;64.49;101095.63;2107527;27;45738;-71
2022/11/06 00:39:39;;;;;;;;;7.00;7.00;;;;;13.23;64.77;101098.34;2108996;27;45438;-70
2022/11/06 00:40:39;;;;;;;;;8.75;7.50;;;;;13.23;64.39;101095.69;2116801;27;46701;-70
2022/11/06 00:41:40;;;;;;;;;8.00;8.00;;;;;13.21;64.49;101086.81;2119960;27;45818;-70
2022/11/06 00:42:40;;;;;;;;;5.75;5.75;;;;;13.20;64.60;101091.28;2122279;27;46269;-70
2022/11/06 00:43:41;;;;;;;;;7.75;7.75;;;;;13.20;64.42;101079.75;2115866;27;45238;-71
2022/11/06 00:44:42;;;;;;;;;7.60;7.60;;;;;13.20;64.37;101077.09;2118690;27;45499;-71
2022/11/06 00:45:42;;;;;;;;;7.00;7.00;;;;;13.19;64.48;101076.22;2114975;27;46284;-71
2022/11/06 00:46:42;;;;;;;;;7.50;7.25;;;;;13.17;64.62;101071.81;2120879;27;46069;-71
2022/11/06 00:47:43;;;;;;;;;7.50;7.00;;;;;13.17;64.39;101072.69;2119664;27;45596;-70
2022/11/06 00:48:43;;;;;;;;;6.67;6.67;;;;;13.19;64.51;101076.22;2122284;27;46864;-70
2022/11/06 00:49:44;;;;;;;;;8.50;8.50;;;;;13.18;64.65;101082.47;2120495;27;45620;-69
2022/11/06 00:50:44;;;;;;;;;8.00;8.00;;;;;13.19;64.58;101081.53;2114866;27;46132;-70
2022/11/06 00:51:45;;;;;;;;;4.00;2.75;;;;;13.21;64.59;101070.84;2117629;27;46167;-71
2022/11/06 00:52:45;;;;;;;;;7.00;7.00;;;;;13.22;64.65;101076.16;2119249;27;45636;-70
2022/11/06 00:53:45;;;;;;;;;7.00;7.00;;;;;13.21;64.61;101073.50;2114253;27;45436;-70
2022/11/06 00:54:46;;;;;;;;;9.00;7.25;;;;;13.18;64.36;101066.47;2112658;27;46605;-72
2022/11/06 00:55:46;;;;;;;;;8.75;7.50;;;;;13.18;64.54;101068.22;2115371;27;45475;-70
2022/11/06 00:56:46;;;;;;;;;7.00;7.00;;;;;13.16;64.52;101064.72;2122925;27;45588;-70
2022/11/06 00:57:47;;;;;;;;;7.75;6.75;;;;;13.17;64.66;101061.16;2122962;27;46314;-70
2022/11/06 00:58:48;;;;;;;;;6.25;5.50;;;;;13.16;64.70;101054.06;2115409;27;45936;-69
2022/11/06 00:59:48;;;;;;;;;6.00;6.00;;;;;13.14;64.41;101054.13;2116967;27;46932;-71
2022/11/06 01:00:48;;;;;;;;;6.67;6.67;;;;;13.13;64.36;101057.69;2123306;27;46731;-70
2022/11/06 01:01:49;;;;;;;;;9.50;8.50;;;;;13.13;64.55;101051.50;2123327;27;45544;-70
2022/11/06 01:02:49;;;;;;;;;6.75;6.50;;;;;13.12;64.65;101050.63;2122521;27;46492;-70
2022/11/06 01:03:58;;;;;;;;;7.25;7.25;;;;;13.14;64.67;101043.47;2123248;27;45802;-72
2022/11/06 01:04:58;;;;;;;;;9.40;8.80;;;;;13.15;64.62;101052.31;2117652;27;45796;-69
2022/11/06 01:06:11;;;;;;;;;6.00;6.00;;;;;13.15;64.75;101047.88;2120895;27;45510;-71
2022/11/06 01:07:11;;;;;;;;;6.25;6.25;;;;;13.14;64.58;101046.13;2120207;27;45835;-70
2022/11/06 01:08:12;;;;;;;;;7.67;6.67;;;;;13.14;64.45;101045.25;2114246;27;46766;-70
2022/11/06 01:09:17;;;;;;;;;10.00;8.00;;;;;13.14;64.59;101045.25;2120786;27;45688;-70
2022/11/06 01:10:17;;;;;;;;;5.75;5.75;;;;;13.12;64.64;101049.75;2114205;27;45682;-69
2022/11/06 01:11:24;;;;;;;;;7.75;6.25;;;;;13.12;64.54;101055.09;2113458;27;46858;-70
2022/11/06 01:12:25;;;;;;;;;7.60;7.40;;;;;13.11;64.35;101053.34;2117238;27;45780;-70
2022/11/06 01:13:25;;;;;;;;;8.25;6.50;;;;;13.09;64.38;101050.72;2115680;27;45594;-70
2022/11/06 01:14:27;;;;;;;;;6.00;6.00;;;;;13.10;64.59;101051.59;2119442;27;45792;-72
2022/11/06 01:15:27;;;;;;;;;8.75;7.75;;;;;13.09;64.53;101037.41;2114051;27;46393;-71
2022/11/06 01:16:28;;;;;;;;;7.00;7.00;;;;;13.11;64.83;101042.69;2114854;27;45556;-72
2022/11/06 01:17:28;;;;;;;;;6.75;6.75;;;;;13.10;64.67;101031.16;2118126;27;45779;-72
2022/11/06 01:18:29;;;;;;;;;8.25;8.00;;;;;13.11;64.54;101046.22;2119854;27;46177;-70
2022/11/06 01:19:29;;;;;;;;;11.00;8.00;;;;;13.13;64.78;101032.84;2114366;27;46119;-71
2022/11/06 01:20:29;;;;;;;;;4.25;4.25;;;;;13.12;64.68;101026.63;2114509;27;45782;-72
2022/11/06 01:21:33;;;;;;;;;6.33;6.33;;;;;13.14;64.64;101023.94;2116208;27;45705;-70
2022/11/06 01:22:33;;;;;;;;;12.20;9.40;;;;;13.14;64.51;101019.47;2123279;27;46069;-70
2022/11/06 01:23:34;;;;;;;;;7.25;7.00;;;;;13.15;64.60;101023.00;2115475;27;48005;-70
2022/11/06 01:24:34;;;;;;;;;7.50;7.50;;;;;13.16;64.60;101024.75;2096644;28;46575;-72
2022/11/06 01:25:35;;;;;;;;;7.25;6.00;;;;;13.17;64.48;101022.06;2104817;28;45843;-71
2022/11/06 01:26:36;;;;;;;;;8.00;6.25;;;;;13.17;64.67;101030.03;2110155;27;45676;-70
2022/11/06 01:27:36;;;;;;;;;6.25;6.25;;;;;13.18;64.64;101022.91;2114110;27;46801;-70
2022/11/06 01:28:38;;;;;;;;;8.00;8.00;;;;;13.19;64.80;101022.03;2112815;27;45071;-71
2022/11/06 01:29:38;;;;;;;;;7.60;6.80;;;;;13.20;64.48;101029.13;2113703;27;46802;-71
2022/11/06 01:30:38;;;;;;;;;8.00;7.00;;;;;13.18;64.58;101025.59;2122983;27;46280;-70
2022/11/06 01:31:39;;;;;;;;;8.75;7.25;;;;;13.19;64.55;101030.91;2108026;27;46133;-70
2022/11/06 01:32:40;;;;;;;;;5.40;4.80;;;;;13.20;64.48;101039.78;2104925;27;46916;-71
2022/11/06 01:33:41;;;;;;;;;9.50;7.25;;;;;13.20;64.33;101029.97;2114786;27;45250;-71
2022/11/06 01:34:41;;;;;;;;;6.20;6.20;;;;;13.23;64.57;101034.38;2114209;27;46966;-71
2022/11/06 01:35:50;;;;;;;;;9.25;7.50;;;;;13.22;64.59;101029.97;2105487;27;45933;-71
2022/11/06 01:36:51;;;;;;;;;7.00;7.00;;;;;13.23;64.58;101032.59;2106963;27;45884;-70
2022/11/06 01:37:51;;;;;;;;;9.00;9.00;;;;;13.23;64.47;101034.38;2118279;27;45344;-69
2022/11/06 01:38:53;;;;;;;;;6.00;6.00;;;;;13.23;64.35;101031.72;2115256;27;46402;-71
2022/11/06 01:39:54;;;;;;;;;7.40;7.40;;;;;13.24;64.52;101030.81;2114137;27;45599;-70
2022/11/06 01:40:55;;;;;;;;;6.75;6.75;;;;;13.25;64.56;101033.41;2113838;27;46260;-70
2022/11/06 01:41:55;;;;;;;;;7.00;5.60;;;;;13.26;64.57;101026.28;2114533;27;45235;-70
2022/11/06 01:42:55;;;;;;;;;6.50;6.50;;;;;13.29;64.36;101030.66;2114399;27;45780;-70
2022/11/06 01:43:59;;;;;;;;;5.50;5.50;;;;;13.28;64.42;101024.47;2113776;27;46227;-70
2022/11/06 01:45:22;;;;;;;;;6.40;4.80;;;;;13.29;64.17;101031.53;2114298;27;45672;-70
2022/11/06 01:46:26;;;;;;;;;7.80;5.60;;;;;13.28;64.41;101029.78;2114134;27;45690;-70
2022/11/06 01:47:28;;;;;;;;;6.00;6.00;;;;;13.30;64.26;101027.06;2113652;27;46257;-71
2022/11/06 01:48:28;;;;;;;;;8.75;7.25;;;;;13.33;64.28;101029.66;2114490;27;45546;-72
2022/11/06 01:49:34;;;;;;;;;6.75;6.50;;;;;13.33;64.46;101025.19;2120589;27;46721;-71
2022/11/06 01:50:36;;;;;;;;;8.00;6.00;;;;;13.33;64.35;101029.66;2119894;27;48201;-71
2022/11/06 01:51:44;;;;;;;;;5.60;5.60;;;;;13.31;64.22;101019.03;2118468;27;46584;-71
2022/11/06 01:52:48;;;;;;;;;8.20;7.00;;;;;13.31;63.93;101021.69;2120990;27;46418;-70
2022/11/06 01:53:50;;;;;;;;;5.80;5.80;;;;;13.31;64.13;101019.03;2114285;27;45830;-70
2022/11/06 01:54:55;;;;;;;;;7.80;7.00;;;;;13.31;64.50;101012.81;2114311;27;45730;-71
2022/11/06 01:56:00;;;;;;;;;7.00;7.00;;;;;13.31;64.21;101019.03;2115254;27;45946;-70
2022/11/06 01:57:02;;;;;;;;;5.00;5.00;;;;;13.29;64.33;101012.88;2113976;27;46520;-71
2022/11/06 01:58:05;;;;;;;;;6.00;6.00;;;;;13.30;64.18;101014.63;2114497;27;46713;-69
2022/11/06 01:59:08;;;;;;;;;4.80;4.80;;;;;13.29;64.16;101018.19;2114076;27;45700;-70
2022/11/06 02:00:09;;;;;;;;;6.80;6.80;;;;;13.31;64.04;101015.50;2121855;27;45709;-71
2022/11/06 02:01:10;;;;;;;;;6.00;6.00;;;;;13.29;64.27;101012.88;2116391;27;46625;-70
2022/11/06 02:02:13;;;;;;;;;9.25;9.25;;;;;13.29;64.02;101015.53;2115552;27;46303;-70
2022/11/06 02:03:13;;;;;;;;;6.25;6.25;;;;;13.30;64.16;101008.41;2113931;27;46206;-70
2022/11/06 02:04:24;;;;;;;;;6.00;4.50;;;;;13.30;64.17;101005.75;2113199;27;45755;-72
2022/11/06 02:05:24;;;;;;;;;6.80;6.20;;;;;13.29;64.07;101006.66;2122684;27;45648;-70
2022/11/06 02:06:25;;;;;;;;;4.00;4.00;;;;;13.29;64.24;100996.00;2122898;27;45590;-72
2022/11/06 02:07:25;;;;;;;;;6.00;5.00;;;;;13.29;64.21;100996.88;2118480;27;44972;-69
2022/11/06 02:08:25;;;;;;;;;7.25;7.25;;;;;13.32;63.95;100995.91;2114942;27;45559;-70
2022/11/06 02:09:29;;;;;;;;;9.75;9.25;;;;;13.31;64.23;100992.38;2114131;27;46234;-71
2022/11/06 02:10:30;;;;;;;;;5.00;5.00;;;;;13.32;64.17;100996.78;2114746;27;45948;-71
2022/11/06 02:11:31;;;;;;;;;7.40;7.00;;;;;13.33;64.16;100990.53;2116277;27;46106;-70
2022/11/06 02:12:43;;;;;;;;;5.00;5.00;;;;;13.33;64.34;100987.88;2122987;27;45133;-70
2022/11/06 02:14:00;;;;;;;;;5.80;5.60;;;;;13.35;64.26;100990.53;2121060;27;45852;-70
2022/11/06 02:15:36;;;;;;;;;5.60;5.60;;;;;13.35;64.19;100986.06;2114044;27;46893;-69
2022/11/06 02:16:58;;;;;;;;;6.25;5.25;;;;;13.36;64.27;100965.59;2083408;28;46209;-71
2022/11/06 02:18:32;;;;;;;;;5.40;5.40;;;;;13.36;63.99;100973.59;2085359;28;45821;-70
2022/11/06 02:19:49;;;;;;;;;6.00;4.75;;;;;13.36;63.98;100966.47;2081725;28;45659;-70
2022/11/06 02:21:09;;;;;;;;;7.00;7.00;;;;;13.35;64.00;100963.88;2080161;28;46367;-70
2022/11/06 02:22:24;;;;;;;;;4.80;4.80;;;;;13.34;64.09;100956.75;2085748;28;46103;-70
2022/11/06 02:23:58;;;;;;;;;8.80;8.80;;;;;13.35;64.23;100943.41;2086273;28;46222;-71
2022/11/06 02:25:23;;;;;;;;;7.20;6.20;;;;;13.37;63.99;100944.25;2083469;28;46767;-71
2022/11/06 02:26:42;;;;;;;;;6.00;5.50;;;;;13.36;63.98;100945.16;2079557;28;45807;-69
2022/11/06 02:27:52;;;;;;;;;9.00;8.00;;;;;13.36;63.84;100937.16;2079203;28;45957;-71
2022/11/06 02:29:02;;;;;;;;;8.20;8.20;;;;;13.35;64.20;100930.09;2088003;28;46565;-70
2022/11/06 02:30:12;;;;;;;;;8.20;7.40;;;;;13.34;64.29;100924.78;2084376;28;45474;-70
2022/11/06 02:31:16;;;;;;;;;4.50;4.00;;;;;13.33;63.88;100923.03;2082743;28;45527;-70
2022/11/06 02:32:23;;;;;;;;;5.00;5.00;;;;;13.33;63.73;100926.56;2079250;28;45704;-71
2022/11/06 02:33:32;;;;;;;;;4.50;4.50;;;;;13.33;64.10;100921.22;2079488;28;46017;-70
2022/11/06 02:34:35;;;;;;;;;4.00;4.00;;;;;13.33;64.08;100925.69;2078539;28;46112;-71
2022/11/06 02:35:36;;;;;;;;;7.40;7.40;;;;;13.34;64.22;100932.78;2079792;28;46218;-70
2022/11/06 02:36:43;;;;;;;;;3.00;3.00;;;;;13.33;64.00;100931.03;2079096;28;46502;-70
2022/11/06 02:37:45;;;;;;;;;5.00;5.00;;;;;13.33;63.97;100934.56;2079675;28;45138;-70
2022/11/06 02:38:52;;;;;;;;;5.25;5.00;;;;;13.33;63.89;100934.56;2083874;28;46821;-70
2022/11/06 02:39:57;;;;;;;;;4.00;4.00;;;;;13.33;63.73;100934.56;2071494;28;45839;-71
2022/11/06 02:41:03;;;;;;;;;6.00;6.00;;;;;13.32;63.92;100937.28;2076737;28;46098;-71
2022/11/06 02:42:07;;;;;;;;;7.25;7.25;;;;;13.33;63.91;100931.03;2086781;28;46014;-70
2022/11/06 02:43:08;;;;;;;;;6.80;6.80;;;;;13.32;63.97;100931.94;2080893;28;46494;-70
2022/11/06 02:44:13;;;;;;;;;5.25;5.25;;;;;13.33;63.82;100933.69;2083993;28;46370;-70
2022/11/06 02:45:17;;;;;;;;;4.25;4.25;;;;;13.34;63.83;100938.09;2087563;28;46969;-71
2022/11/06 02:46:24;;;;;;;;;6.50;5.75;;;;;13.32;63.61;100930.16;2088050;28;45389;-70
2022/11/06 02:47:28;;;;;;;;;5.00;5.00;;;;;13.33;63.57;100941.69;2084429;28;46559;-70
2022/11/06 02:48:36;;;;;;;;;4.75;3.75;;;;;13.30;63.83;100937.31;2081181;28;46040;-71
2022/11/06 02:49:44;;;;;;;;;5.00;5.00;;;;;13.28;63.95;100931.16;2083817;28;45904;-71
2022/11/06 02:50:49;;;;;;;;;4.25;4.25;;;;;13.27;63.68;100934.75;2082701;28;48507;-70
2022/11/06 02:51:55;;;;;;;;;5.75;5.75;;;;;13.27;64.07;100940.09;2082729;28;46739;-71
2022/11/06 02:53:07;;;;;;;;;4.00;4.00;;;;;13.27;63.75;100939.22;2083638;28;46210;-69
2022/11/06 02:54:10;;;;;;;;;5.50;5.00;;;;;13.26;63.98;100938.34;2110929;27;45460;-70
2022/11/06 02:55:16;;;;;;;;;4.00;4.00;;;;;13.27;63.82;100936.56;2113779;27;46607;-71
2022/11/06 02:56:26;;;;;;;;;6.00;6.00;;;;;13.27;63.99;100931.22;2107184;27;46734;-71
2022/11/06 02:57:30;;;;;;;;;7.75;6.25;;;;;13.28;64.01;100930.28;2113531;27;46467;-71
2022/11/06 02:58:38;;;;;;;;;5.75;4.75;;;;;13.31;63.91;100924.88;2122716;27;48444;-70
2022/11/06 02:59:47;;;;;;;;;5.75;5.75;;;;;13.31;63.96;100931.06;2119108;27;46464;-71
2022/11/06 03:01:01;;;;;;;;;6.00;5.00;;;;;13.32;63.86;100926.63;2117046;27;46370;-70
2022/11/06 03:02:09;;;;;;;;;3.75;3.75;;;;;13.29;63.89;100927.59;2113466;27;45742;-70
2022/11/06 03:03:31;;;;;;;;;4.75;4.75;;;;;13.29;63.95;100934.72;2114237;27;45872;-69
2022/11/06 03:04:49;;;;;;;;;4.25;4.25;;;;;13.28;63.71;100928.50;2114105;27;45672;-71
2022/11/06 03:05:59;;;;;;;;;6.40;5.80;;;;;13.27;63.96;100929.44;2113497;27;46971;-70
2022/11/06 03:07:08;;;;;;;;;5.00;5.00;;;;;13.29;64.09;100924.03;2118754;27;47399;-70
2022/11/06 03:08:37;;;;;;;;;5.00;5.00;;;;;13.28;63.74;100928.50;2122628;27;45326;-71
2022/11/06 03:09:38;;;;;;;;;5.00;5.00;;;;;13.27;63.85;100920.56;2087190;28;46462;-71
2022/11/06 03:10:48;;;;;;;;;7.25;6.50;;;;;13.27;63.56;100931.22;2080222;28;47251;-70
2022/11/06 03:11:56;;;;;;;;;5.75;5.75;;;;;13.25;63.83;100925.94;2082317;28;46337;-70
2022/11/06 03:13:16;;;;;;;;;7.25;6.25;;;;;13.25;63.66;100918.81;2078814;28;46106;-70
2022/11/06 03:14:25;;;;;;;;;6.00;6.00;;;;;13.24;64.00;100910.88;2077023;28;45185;-70
2022/11/06 03:15:42;;;;;;;;;5.00;5.00;;;;;13.23;64.15;100906.47;2078900;28;46809;-69
2022/11/06 03:17:02;;;;;;;;;6.00;4.60;;;;;13.23;63.71;100912.66;2080496;28;46570;-70
2022/11/06 03:18:11;;;;;;;;;5.00;5.00;;;;;13.22;63.71;100910.03;2077801;28;45747;-71
2022/11/06 03:19:34;;;;;;;;;4.00;4.00;;;;;13.21;63.82;100902.94;2078719;28;46632;-70
2022/11/06 03:20:57;;;;;;;;;4.00;4.00;;;;;13.21;63.76;100903.84;2078654;28;46670;-69
2022/11/06 03:22:08;;;;;;;;;7.80;6.00;;;;;13.21;63.95;100886.94;2070839;28;46590;-69
2022/11/06 03:23:21;;;;;;;;;4.60;4.60;;;;;13.21;64.09;100887.84;2074847;28;45337;-71
2022/11/06 03:24:38;;;;;;;;;4.75;4.75;;;;;13.21;63.82;100877.19;2074691;28;45574;-69
2022/11/06 03:25:57;;;;;;;;;6.00;6.00;;;;;13.21;63.98;100879.84;2076231;28;45278;-70
2022/11/06 03:27:06;;;;;;;;;6.20;5.00;;;;;13.23;63.88;100886.00;2070729;28;45711;-70
2022/11/06 03:28:11;;;;;;;;;4.75;4.25;;;;;13.22;63.94;100889.59;2071032;28;46885;-70
2022/11/06 03:29:30;;;;;;;;;5.00;5.00;;;;;13.21;63.89;100877.19;2074040;28;46277;-70
2022/11/06 03:30:35;;;;;;;;;4.25;4.25;;;;;13.21;63.58;100877.19;2077804;28;45793;-71
2022/11/06 03:31:57;;;;;;;;;5.50;4.75;;;;;13.20;63.93;100870.09;2070885;28;46437;-71
2022/11/06 03:33:07;;;;;;;;;7.00;4.25;;;;;13.19;63.77;100879.00;2070825;28;46782;-70
2022/11/06 03:34:13;;;;;;;;;6.25;6.00;;;;;13.18;63.76;100877.25;2073772;28;46689;-70
2022/11/06 03:35:22;;;;;;;;;5.00;5.00;;;;;13.17;63.91;100867.50;2079021;28;46924;-70
2022/11/06 03:36:32;;;;;;;;;4.75;4.75;;;;;13.17;63.69;100874.63;2071224;28;46915;-69
2022/11/06 03:37:43;;;;;;;;;3.60;3.60;;;;;13.15;63.82;100868.47;2076845;28;46142;-71
2022/11/06 03:38:49;;;;;;;;;4.00;4.00;;;;;13.13;63.76;100864.97;2077208;28;45668;-70
2022/11/06 03:39:54;;;;;;;;;4.40;4.40;;;;;13.12;63.57;100871.22;2078512;28;45855;-70
2022/11/06 03:41:02;;;;;;;;;4.00;4.00;;;;;13.11;63.80;100869.47;2079100;28;45738;-71
2022/11/06 03:42:10;;;;;;;;;5.25;5.00;;;;;13.11;63.95;100873.00;2070846;28;47440;-70
2022/11/06 03:43:14;;;;;;;;;4.75;4.50;;;;;13.10;63.64;100871.28;2071702;28;46256;-70
2022/11/06 03:44:19;;;;;;;;;5.75;5.75;;;;;13.09;63.86;100874.00;2079234;28;45848;-71
2022/11/06 03:45:23;;;;;;;;;5.00;4.20;;;;;13.08;63.99;100864.22;2078698;28;46067;-69
2022/11/06 03:46:25;;;;;;;;;4.80;4.80;;;;;13.06;64.00;100863.41;2083347;27;46495;-71
2022/11/06 03:47:33;;;;;;;;;4.00;4.00;;;;;13.06;63.99;100863.41;2113277;27;46596;-71
2022/11/06 03:48:43;;;;;;;;;4.40;3.40;;;;;13.04;64.11;100867.91;2115939;27;45794;-71
2022/11/06 03:49:58;;;;;;;;;5.20;5.20;;;;;13.03;63.87;100868.81;2113309;27;46397;-70
2022/11/06 03:51:03;;;;;;;;;7.20;5.60;;;;;13.01;63.93;100871.53;2113383;27;45324;-70
2022/11/06 03:52:17;;;;;;;;;7.20;7.20;;;;;13.01;64.06;100876.00;2116316;27;46377;-69
2022/11/06 03:53:25;;;;;;;;;5.40;4.40;;;;;13.00;64.14;100872.47;2115226;27;46365;-70
2022/11/06 03:54:33;;;;;;;;;4.80;4.20;;;;;12.99;64.06;100876.03;2113606;27;47203;-70
2022/11/06 03:55:58;;;;;;;;;7.00;4.60;;;;;13.02;64.16;100885.72;2104064;27;45963;-70
2022/11/06 03:57:14;;;;;;;;;6.80;6.00;;;;;13.02;64.23;100881.28;2112355;27;46769;-71
2022/11/06 03:58:22;;;;;;;;;5.00;4.60;;;;;13.03;64.13;100871.47;2117742;27;46324;-71
2022/11/06 03:59:30;;;;;;;;;4.00;4.00;;;;;13.03;64.17;100875.03;2105104;27;45893;-71
2022/11/06 04:00:34;;;;;;;;;1.00;0.60;;;;;13.04;64.23;100867.91;2112591;27;46739;-71
2022/11/06 04:01:43;;;;;;;;;5.80;5.80;;;;;13.05;64.18;100859.00;2117060;27;46602;-71
2022/11/06 04:02:50;;;;;;;;;4.40;4.20;;;;;13.05;64.03;100851.00;2113974;27;46035;-70
2022/11/06 04:03:58;;;;;;;;;4.80;4.60;;;;;13.06;63.85;100847.41;2121502;27;45897;-71
2022/11/06 04:05:05;;;;;;;;;5.20;5.00;;;;;13.05;63.85;100838.53;2119774;27;46714;-71
2022/11/06 04:06:28;;;;;;;;;5.00;5.00;;;;;13.04;63.76;100841.25;2119411;27;45638;-70
2022/11/06 04:07:35;;;;;;;;;5.40;5.00;;;;;13.04;63.92;100846.59;2114062;27;46268;-71
2022/11/06 04:14:23;;;;;;;;;3.25;3.25;;;;;12.94;64.32;100843.31;2090325;28;46338;-71
2022/11/06 04:15:25;;;;;;;;;4.60;4.60;;;;;12.92;63.93;100842.50;2095756;28;46173;-70
2022/11/06 04:16:37;;;;;;;;;5.80;5.00;;;;;12.92;63.99;100845.16;2095229;28;45524;-69
2022/11/06 04:17:39;;;;;;;;;6.00;5.00;;;;;12.90;63.68;100844.34;2095684;28;45908;-71
2022/11/06 04:18:39;;;;;;;;;3.25;3.25;;;;;12.90;64.04;100828.34;2087234;28;46158;-69
2022/11/06 04:19:48;;;;;;;;;5.67;5.67;;;;;12.91;64.11;100824.78;2085589;28;46359;-72
2022/11/06 04:21:24;;;;;;;;;6.00;5.00;;;;;12.89;64.02;100829.28;2088410;28;45994;-69
2022/11/06 04:22:38;;;;;;;;;6.00;4.75;;;;;12.90;63.96;100829.22;2090194;28;45900;-70
2022/11/06 04:27:12;;;;;;;;;5.50;4.75;;;;;12.91;64.14;100827.44;2095312;28;45726;-70
2022/11/06 04:28:35;;;;;;;;;4.50;4.00;;;;;12.89;63.99;100823.94;2102869;28;47007;-71
2022/11/06 04:30:08;;;;;;;;;5.00;5.00;;;;;12.88;64.22;100824.88;2101167;28;46357;-69
2022/11/06 04:31:32;;;;;;;;;6.00;6.00;;;;;12.87;64.08;100836.44;2100231;28;46832;-70
2022/11/06 04:32:40;;;;;;;;;6.75;5.75;;;;;12.85;64.12;100835.63;2100443;28;46912;-70
2022/11/06 04:33:56;;;;;;;;;2.00;2.00;;;;;12.83;64.08;100835.66;2100616;28;47027;-70
2022/11/06 04:35:06;;;;;;;;;5.50;4.00;;;;;12.84;64.24;100828.53;2095335;28;46787;-70
2022/11/06 04:36:41;;;;;;;;;5.00;5.00;;;;;12.85;64.20;100830.28;2095229;28;45667;-69
2022/11/06 04:37:47;;;;;;;;;4.50;4.50;;;;;12.85;64.17;100828.50;2095139;28;46909;-71
2022/11/06 04:39:03;;;;;;;;;6.60;6.40;;;;;12.85;64.11;100825.84;2095563;28;45434;-70
2022/11/06 04:40:12;;;;;;;;;3.75;3.75;;;;;12.84;64.31;100831.22;2095321;28;45476;-70
2022/11/06 04:41:59;;;;;;;;;5.50;5.00;;;;;12.85;64.25;100836.50;2086930;28;45789;-70
2022/11/06 04:43:06;;;;;;;;;3.50;3.50;;;;;12.84;64.13;100829.41;2078567;28;45338;-71
2022/11/06 04:44:14;;;;;;;;;3.00;3.00;;;;;12.84;63.89;100825.88;2077205;28;45460;-70
2022/11/06 04:45:22;;;;;;;;;6.50;5.00;;;;;12.84;64.18;100825.88;2080752;28;47562;-71
2022/11/06 04:46:28;;;;;;;;;4.20;3.20;;;;;12.87;64.22;100831.13;2086755;28;46079;-70
2022/11/06 04:47:30;;;;;;;;;5.00;4.00;;;;;12.87;64.01;100831.97;2084674;28;46620;-69
2022/11/06 04:48:31;;;;;;;;;4.50;4.50;;;;;12.89;64.28;100834.59;2104827;27;46778;-70
2022/11/06 04:49:34;;;;;;;;;5.00;5.00;;;;;12.89;64.12;100831.94;2104381;27;46288;-69
2022/11/06 04:50:41;;;;;;;;;5.00;5.00;;;;;12.89;64.13;100829.28;2104139;28;45519;-71
2022/11/06 04:51:44;;;;;;;;;4.00;4.00;;;;;12.90;64.14;100834.56;2103590;28;45244;-71
2022/11/06 04:52:46;;;;;;;;;5.00;5.00;;;;;12.91;64.00;100838.97;2104811;27;46667;-69
2022/11/06 04:53:48;;;;;;;;;4.00;4.00;;;;;12.91;64.00;100824.78;2104158;28;48054;-71
2022/11/06 04:54:49;;;;;;;;;3.80;3.80;;;;;12.91;63.65;100828.31;2103891;28;46239;-70
2022/11/06 04:55:58;;;;;;;;;6.00;4.00;;;;;12.91;63.87;100820.31;2103204;28;46033;-70
2022/11/06 04:56:59;;;;;;;;;4.60;4.60;;;;;12.92;63.83;100824.72;2093236;28;46373;-70
2022/11/06 04:57:59;;;;;;;;;4.50;4.50;;;;;12.92;63.96;100818.53;2095714;28;45863;-70
2022/11/06 04:59:00;;;;;;;;;4.00;4.00;;;;;12.93;63.99;100817.59;2104074;28;45442;-70
2022/11/06 05:00:00;;;;;;;;;4.25;4.25;;;;;12.93;63.89;100812.28;2103728;28;46317;-70
2022/11/06 05:01:01;;;;;;;;;4.50;4.50;;;;;12.92;63.96;100814.06;2103647;28;46846;-70
2022/11/06 05:02:02;;;;;;;;;4.00;4.00;;;;;12.92;63.97;100818.53;2103602;28;47000;-70
2022/11/06 05:03:02;;;;;;;;;6.60;5.00;;;;;12.93;63.87;100825.59;2103724;28;46104;-70
2022/11/06 05:04:02;;;;;;;;;4.50;4.50;;;;;12.93;63.96;100822.94;2105098;27;46323;-70
2022/11/06 05:05:03;;;;;;;;;6.25;6.25;;;;;12.94;63.89;100819.34;2088694;28;45385;-67
2022/11/06 05:06:03;;;;;;;;;3.00;3.00;;;;;12.93;63.75;100818.47;2086730;28;47326;-71
2022/11/06 05:07:04;;;;;;;;;3.75;3.75;;;;;12.93;63.85;100817.59;2103396;28;45484;-70
2022/11/06 05:08:04;;;;;;;;;4.50;4.50;;;;;12.93;63.90;100807.81;2105082;27;48549;-70
2022/11/06 05:09:05;;;;;;;;;2.75;2.75;;;;;12.94;63.84;100809.56;2106624;27;45056;-70
2022/11/06 05:10:05;;;;;;;;;4.50;3.75;;;;;12.94;63.82;100808.69;2103701;28;45183;-70
2022/11/06 05:11:06;;;;;;;;;7.00;4.50;;;;;12.92;63.84;100800.75;2096700;28;45879;-70
2022/11/06 05:12:06;;;;;;;;;1.75;1.75;;;;;12.92;63.71;100803.41;2096641;28;45715;-71
2022/11/06 05:13:06;;;;;;;;;5.00;4.00;;;;;12.94;63.85;100806.88;2103559;27;46214;-70
2022/11/06 05:14:07;;;;;;;;;4.75;4.25;;;;;12.94;63.80;100804.22;2103069;28;46020;-70
2022/11/06 05:15:07;;;;;;;;;5.00;5.00;;;;;12.94;63.82;100800.69;2103965;28;45706;-69
2022/11/06 05:16:08;;;;;;;;;5.50;4.75;;;;;12.92;63.74;100800.75;2107816;27;46909;-69
2022/11/06 05:17:08;;;;;;;;;4.50;4.00;;;;;12.94;63.77;100798.03;2112172;27;45538;-69